Whitney Point, New York
Current Conditions -  °F | °C
As of 5:53 PM on Saturday 22 Nov 2014 (Local Time) from KBGM Reporting Station
Overcast Overcast  
Wind Chill: 27°   Ceiling: 1600
Heat Index: 36°   Visibility: 10mi
Dew Point: 27°   Wind: 14mph
Humidity: 70%   Direction: 220°SW
Pressure: 30.08"   Gusts: 21mph
Location:  42.33°N, 75.97°W
Report Text: KBGM 222253Z 22012G18KT 10SM OVC016 02/M03 A3008 RMK AO2 SLP207 T00221028
Loading
Personal Weather Stations






























Interactive Weather Map New forecast layout! Learn more

10-Day Weather Forecast

Advertisements
Track Severe Weather on mobile